Aviation Digital Data Service (ADDS)

Output produced by METARs form (1114 UTC 24 April 2017)
found at http://www.aviationweather.gov/adds/metars/
 
TAF TTPP 241000Z 2412/2512 12005KT 9999 FEW018 
     BECMG 2412/2415 11015KT SCT020 
     BECMG 2504/2506 VRB05KT FEW018
       
TAF TTCP 241000Z 2412/2512 08010KT 9999 FEW018 
     BECMG 2412/2414 11020KT SCT020 
     BECMG 2504/2506 VRB05KT FEW018